Flight Track Log - Related Links

Times and Time Zones

All times are in EDT time to prevent confusion due to time zone crossing. See the BOE2 flight status page for this flight to view local times or setup timezone preferences in your user account.

Time Position Orientation Groundspeed Altitude Reporting Facility
EDT Latitude Longitude Course Direction KTS MPH feet Rate Location/Type
Mon 10:54:32 AM 47.5028 -122.2820 145° Southeast 177 204 1,400  Level Seattle Center
Mon 10:55:55 AM 47.4275 -122.2040 156° South 262 302 4,100 2,224 Climbing Seattle Center
Mon 10:56:55 AM 47.3597 -122.1590 195° South 286 329 6,700 2,650 Climbing Seattle Center
Mon 10:57:55 AM 47.2842 -122.1890 234° Southwest 275 316 9,400 2,100 Climbing Seattle Center
Mon 10:58:55 AM 47.2383 -122.2820 300° West 251 289 10,900 2,000 Climbing Seattle Center
Mon 10:59:55 AM 47.2817 -122.3940 309° West 213 245 13,400 1,800 Climbing Seattle Center
Mon 11:00:55 AM 47.3439 -122.5070 310° West 273 314 14,500 1,600 Climbing Seattle Center
Mon 11:01:55 AM 47.4117 -122.6270 310° West 341 392 16,600 1,900 Climbing Seattle Center
Mon 11:02:55 AM 47.4814 -122.7500 310° West 373 429 18,300 1,750 Climbing Seattle Center
Mon 11:03:55 AM 47.5531 -122.8770 308° West 392 451 20,100 1,750 Climbing Seattle Center
Mon 11:04:55 AM 47.6244 -123.0110 309° West 408 470 21,800 1,650 Climbing Seattle Center
Mon 11:05:55 AM 47.6997 -123.1470 310° West 414 476 23,400 1,500 Climbing Seattle Center
Mon 11:06:55 AM 47.7769 -123.2850 310° West 420 483 24,800 1,450 Climbing Seattle Center
Mon 11:07:55 AM 47.8539 -123.4230 302° West 425 489 26,300 1,400 Climbing Seattle Center
Mon 11:08:55 AM 47.9197 -123.5790 297° West 435 501 27,600 1,200 Climbing Seattle Center
Mon 11:09:55 AM 47.9750 -123.7380 299° West 441 507 28,700 1,000 Climbing Seattle Center
Mon 11:10:55 AM 48.0361 -123.9010 299° West 447 514 29,600 1,350 Climbing Seattle Center
Mon 11:11:55 AM 48.0969 -124.0640 297° West 453 521 31,400 1,550 Climbing Seattle Center
Mon 11:12:55 AM 48.1533 -124.2270 299° West 447 514 32,700 1,200 Climbing Seattle Center
Mon 11:13:55 AM 48.2119 -124.3840 297° West 447 514 33,800 650 Climbing Seattle Center
Mon 11:14:55 AM 48.2661 -124.5420 308° West 440 506 34,000 250 Climbing Seattle Center
Mon 11:15:55 AM 48.3375 -124.6790 319° Northwest 446 513 34,300 709 Climbing Seattle Center
Mon 11:16:45 AM 48.4167 -124.7830 322° Northwest 440 506 35,300 927 Climbing Vancouver Center
Mon 11:17:45 AM 48.5000 -124.8830 330° Northwest 430 495 36,000 350 Climbing Vancouver Center
Mon 11:18:45 AM 48.6167 -124.9830 322° Northwest 430 495 36,000  Level Vancouver Center
Mon 11:19:45 AM 48.7000 -125.0830 322° Northwest 430 495 36,000  Level Vancouver Center
Mon 11:20:45 AM 48.8000 -125.2000 327° Northwest 430 495 36,000  Level Vancouver Center
Mon 11:21:45 AM 48.9000 -125.3000 319° Northwest 430 495 36,000  Level Vancouver Center
Mon 11:22:45 AM 49.0000 -125.4330 327° Northwest 430 495 36,000  Level Vancouver Center
Mon 11:23:45 AM 49.1000 -125.5330 316° Northwest 430 495 36,000  Level Vancouver Center
Mon 11:24:45 AM 49.1667 -125.6330 323° Northwest 430 495 36,000  Level Vancouver Center
Mon 11:25:45 AM 49.2667 -125.7500 327° Northwest 430 495 36,000  Level Vancouver Center
Mon 11:26:45 AM 49.3667 -125.8500 327° Northwest 440 506 36,000  Level Vancouver Center
Mon 11:27:45 AM 49.4667 -125.9500 323° Northwest 430 495 36,000  Level Vancouver Center
Mon 11:28:45 AM 49.5667 -126.0670 327° Northwest 440 506 36,000  Level Vancouver Center
Mon 11:29:45 AM 49.6667 -126.1670 319° Northwest 430 495 36,000  Level Vancouver Center
Mon 11:30:45 AM 49.7667 -126.3000 323° Northwest 430 495 36,000  Level Vancouver Center
Mon 11:31:45 AM 49.8667 -126.4170 322° Northwest 430 495 36,000  Level Vancouver Center
Mon 11:32:45 AM 49.9500 -126.5170 323° Northwest 430 495 36,000  Level Vancouver Center
Mon 11:33:45 AM 50.0500 -126.6330 325° Northwest 430 495 36,000  Level Vancouver Center
Mon 11:35:45 AM 50.2500 -126.8500 318° Northwest 440 506 36,000  Level Vancouver Center
Mon 11:36:45 AM 50.3333 -126.9670 324° Northwest 440 506 36,000  Level Vancouver Center
Mon 11:37:45 AM 50.4500 -127.1000 312° West 430 495 36,000  Level Vancouver Center
Mon 11:38:45 AM 50.5167 -127.2170 328° Northwest 430 495 36,000  Level Vancouver Center
Mon 11:39:45 AM 50.6333 -127.3330 328° Northwest 440 506 36,000  Level Vancouver Center
Mon 11:40:45 AM 50.7333 -127.4330 332° Northwest 440 506 36,000  Level Vancouver Center
Mon 11:41:45 AM 50.8500 -127.5330 332° Northwest 450 518 36,000  Level Vancouver Center
Mon 11:42:45 AM 50.9500 -127.6170 328° Northwest 450 518 36,000  Level Vancouver Center
Mon 11:43:45 AM 51.0667 -127.7330 328° Northwest 440 506 36,000  Level Vancouver Center
Mon 11:44:45 AM 51.1500 -127.8170 332° Northwest 440 506 36,000  Level Vancouver Center
Mon 11:45:45 AM 51.2667 -127.9170 336° Northwest 450 518 36,000  Level Vancouver Center
Mon 11:46:44 AM 51.3833 -128.0000 328° Northwest 450 518 36,000  Level Vancouver Center
Mon 11:47:45 AM 51.5000 -128.1170 333° Northwest 450 518 36,000  Level Vancouver Center
Mon 11:48:45 AM 51.6000 -128.2000 332° Northwest 450 518 36,000  Level Vancouver Center
Mon 11:49:44 AM 51.7167 -128.3000 328° Northwest 450 518 36,000  Level Vancouver Center
Mon 11:50:44 AM 51.8167 -128.4000 328° Northwest 450 518 36,000  Level Vancouver Center
Mon 11:51:45 AM 51.9333 -128.5170 336° Northwest 450 518 36,000  Level Vancouver Center
Mon 11:52:44 AM 52.0500 -128.6000 332° Northwest 450 518 36,000  Level Vancouver Center
Mon 11:53:44 AM 52.1667 -128.7000 329° Northwest 450 518 36,000  Level Vancouver Center
Mon 11:54:44 AM 52.2500 -128.7830 325° Northwest 450 518 36,000  Level Vancouver Center
Mon 11:55:44 AM 52.3667 -128.9170 332° Northwest 450 518 36,000  Level Vancouver Center
Mon 11:56:44 AM 52.4833 -129.0170 333° Northwest 450 518 36,000  Level Vancouver Center
Mon 11:57:44 AM 52.5833 -129.1000 321° Northwest 450 518 36,000  Level Vancouver Center
Mon 11:58:44 AM 52.6833 -129.2330 336° Northwest 450 518 36,000  Level Vancouver Center
Mon 11:59:44 AM 52.8000 -129.3170 333° Northwest 450 518 36,000  Level Vancouver Center
Mon 12:00:45 PM 52.9167 -129.4170 333° Northwest 450 518 36,000  Level Vancouver Center
Mon 12:01:45 PM 53.0333 -129.5170 324° Northwest 450 518 36,000  Level Vancouver Center
Mon 12:02:44 PM 53.1167 -129.6170 329° Northwest 460 529 36,000  Level Vancouver Center
Mon 12:03:44 PM 53.2333 -129.7330 333° Northwest 460 529 36,000  Level Vancouver Center
Mon 12:04:44 PM 53.3500 -129.8330 321° Northwest 460 529 36,000  Level Vancouver Center
Mon 12:05:44 PM 53.4500 -129.9670 333° Northwest 460 529 36,000  Level Vancouver Center
Mon 12:06:44 PM 53.5667 -130.0670 333° Northwest 460 529 36,000  Level Vancouver Center
Mon 12:07:44 PM 53.6833 -130.1670 322° Northwest 460 529 36,000  Level Vancouver Center
Mon 12:08:44 PM 53.7833 -130.3000 333° Northwest 470 541 36,000  Level Vancouver Center
Mon 12:09:44 PM 53.9000 -130.4000 333° Northwest 470 541 36,000  Level Vancouver Center
Mon 12:10:44 PM 54.0167 -130.5000 322° Northwest 470 541 36,000  Level Vancouver Center
Mon 12:11:44 PM 54.1167 -130.6330 333° Northwest 460 529 36,000  Level Vancouver Center
Mon 12:12:44 PM 54.2333 -130.7330 330° Northwest 460 529 36,000  Level Vancouver Center
Mon 12:13:44 PM 54.3500 -130.8500 322° Northwest 460 529 36,000  Level Vancouver Center
Mon 12:14:44 PM 54.4500 -130.9830 334° Northwest 460 529 36,000  Level Vancouver Center
Mon 12:15:44 PM 54.5667 -131.0830 332° Northwest 470 541 36,000  Level Vancouver Center
Mon 12:17:45 PM 54.7833 -131.2830 330° Northwest 470 541 36,000  Level Anchorage Center
Mon 12:18:46 PM 54.9000 -131.4000 326° Northwest 470 541 36,000  Level Anchorage Center
Mon 12:19:46 PM 55.0000 -131.5170 327° Northwest 470 541 36,000  Level Anchorage Center
Mon 12:20:47 PM 55.1167 -131.6500 334° Northwest 470 541 36,000  Level Anchorage Center
Mon 12:21:47 PM 55.2333 -131.7500 327° Northwest 470 541 36,000  Level Anchorage Center
Mon 12:22:47 PM 55.3500 -131.8830 330° Northwest 470 541 36,000  Level Anchorage Center
Mon 12:23:48 PM 55.4500 -131.9830 331° Northwest 480 552 36,000  Level Anchorage Center
Mon 12:24:48 PM 55.5500 -132.0830 331° Northwest 470 541 36,000  Level Anchorage Center
Mon 12:25:48 PM 55.6667 -132.2000 327° Northwest 490 564 36,000  Level Anchorage Center
Mon 12:26:48 PM 55.7833 -132.3330 328° Northwest 480 552 36,000  Level Anchorage Center
Mon 12:27:49 PM 55.9167 -132.4830 331° Northwest 490 564 36,000  Level Anchorage Center
Mon 12:28:49 PM 56.0333 -132.6000 328° Northwest 490 564 36,000  Level Anchorage Center
Mon 12:29:49 PM 56.1500 -132.7330 331° Northwest 480 552 36,000  Level Anchorage Center
Mon 12:30:50 PM 56.2667 -132.8500 328° Northwest 480 552 36,000  Level Anchorage Center
Mon 12:31:50 PM 56.3833 -132.9830 328° Northwest 490 564 36,000  Level Anchorage Center
Mon 12:32:50 PM 56.5000 -133.1170 324° Northwest 490 564 36,000  Level Anchorage Center
Mon 12:33:51 PM 56.6000 -133.2500 328° Northwest 480 552 36,000  Level Anchorage Center
Mon 12:34:51 PM 56.7167 -133.3830 324° Northwest 480 552 36,000  Level Anchorage Center
Mon 12:35:51 PM 56.8167 -133.5170 328° Northwest 480 552 36,000  Level Anchorage Center
Mon 12:36:52 PM 56.9333 -133.6500 325° Northwest 490 564 36,000  Level Anchorage Center
Mon 12:37:52 PM 57.0500 -133.8000 328° Northwest 490 564 36,000  Level Anchorage Center
Mon 12:38:53 PM 57.1667 -133.9330 325° Northwest 490 564 36,000  Level Anchorage Center
Mon 12:39:52 PM 57.2833 -134.0830 321° Northwest 490 564 36,000 50 Level Anchorage Center
Mon 12:40:53 PM 57.3833 -134.2330 328° Northwest 500 575 36,100 645 Climbing Anchorage Center
Mon 12:41:53 PM 57.5000 -134.3670 325° Northwest 490 564 37,300 942 Climbing Anchorage Center
Mon 12:42:54 PM 57.6167 -134.5170 329° Northwest 490 564 38,000 347 Climbing Anchorage Center
Mon 12:43:54 PM 57.7333 -134.6500 321° Northwest 490 564 38,000  Level Anchorage Center
Mon 12:44:54 PM 57.8333 -134.8000 326° Northwest 490 564 38,000  Level Anchorage Center
Mon 12:45:54 PM 57.9500 -134.9500 322° Northwest 480 552 38,000  Level Anchorage Center
Mon 12:46:55 PM 58.0500 -135.1000 326° Northwest 490 564 38,000  Level Anchorage Center
Mon 12:47:55 PM 58.1667 -135.2500 332° Northwest 490 564 38,000  Level Anchorage Center
Mon 12:48:55 PM 58.2833 -135.3670 329° Northwest 500 575 38,000  Level Anchorage Center
Mon 12:49:56 PM 58.4000 -135.5000 333° Northwest 490 564 38,000  Level Anchorage Center
Mon 12:50:56 PM 58.5333 -135.6330 329° Northwest 490 564 38,000  Level Anchorage Center
Mon 12:51:57 PM 58.6500 -135.7670 333° Northwest 490 564 38,000  Level Anchorage Center
Mon 12:52:57 PM 58.7667 -135.8830 329° Northwest 500 575 38,000  Level Anchorage Center
Mon 12:53:58 PM 58.8833 -136.0170 330° Northwest 490 564 38,000  Level Anchorage Center
Mon 12:54:58 PM 59.0000 -136.1500 333° Northwest 500 575 38,000  Level Anchorage Center
Mon 12:55:58 PM 59.1333 -136.2830 330° Northwest 500 575 38,000  Level Anchorage Center
Mon 12:56:58 PM 59.2500 -136.4170 330° Northwest 490 564 38,000  Level Anchorage Center
Mon 12:57:59 PM 59.3667 -136.5500 330° Northwest 500 575 38,000  Level Anchorage Center
Mon 12:58:59 PM 59.4833 -136.6830 327° Northwest 500 575 38,000  Level Anchorage Center
Mon 12:59:59 PM 59.6000 -136.8330 330° Northwest 490 564 38,000  Level Anchorage Center
Mon 01:00:59 PM 59.7167 -136.9670 327° Northwest 490 564 38,000  Level Anchorage Center
Mon 01:02:00 PM 59.8333 -137.1170 329° Northwest 490 564 38,000  Level Anchorage Center
Mon 01:15:04 PM 61.3667 -139.0500 324° Northwest 520 598 38,000  Level Anchorage Center
Mon 01:16:05 PM 61.5000 -139.2500 320° Northwest 550 633 38,000  Level Anchorage Center
Mon 01:25:53 PM 62.5167 -141.1000 317° Northwest 500 575 38,000  Level Anchorage Center
Mon 01:26:53 PM 62.6167 -141.3000 323° Northwest 490 564 38,000  Level Anchorage Center
Mon 01:27:53 PM 62.7167 -141.4670 318° Northwest 490 564 38,000  Level Anchorage Center
Mon 01:28:54 PM 62.8167 -141.6670 316° Northwest 490 564 38,000  Level Anchorage Center
Mon 01:29:54 PM 62.9167 -141.8830 315° West 490 564 38,000  Level Anchorage Center
Mon 01:30:55 PM 63.0167 -142.1000 306° West 500 575 38,000  Level Anchorage Center
Mon 01:31:55 PM 63.1000 -142.3500 307° West 490 564 38,000  Level Anchorage Center
Mon 01:32:55 PM 63.1833 -142.6000 301° West 500 575 38,000  Level Anchorage Center
Mon 01:33:56 PM 63.2500 -142.8500 316° Northwest 490 564 38,000  Level Anchorage Center
Mon 01:34:56 PM 63.3500 -143.0670 330° Northwest 490 564 38,000  Level Anchorage Center
Mon 01:35:57 PM 63.4667 -143.2170 333° Northwest 480 552 38,000  Level Anchorage Center
Mon 01:36:57 PM 63.5833 -143.3500 336° Northwest 490 564 38,000  Level Anchorage Center
Mon 01:37:58 PM 63.7167 -143.4830 333° Northwest 490 564 38,000  Level Anchorage Center
Mon 01:38:58 PM 63.8333 -143.6170 331° Northwest 500 575 38,000  Level Anchorage Center
Mon 01:39:58 PM 63.9500 -143.7670 331° Northwest 490 564 38,000  Level Anchorage Center
Mon 01:40:59 PM 64.0667 -143.9170 337° Northwest 490 564 38,000  Level Anchorage Center
Mon 01:42:04 PM 64.2167 -144.0670 328° Northwest 480 552 38,000  Level Anchorage Center
Mon 01:43:05 PM 64.3333 -144.2330 334° Northwest 490 564 38,000  Level Anchorage Center
Mon 01:44:05 PM 64.4500 -144.3670 334° Northwest 480 552 38,000  Level Anchorage Center
Mon 01:45:05 PM 64.5833 -144.5170 331° Northwest 490 564 38,000  Level Anchorage Center
Mon 01:46:05 PM 64.7000 -144.6670 329° Northwest 480 552 38,000  Level Anchorage Center
Mon 01:47:06 PM 64.8167 -144.8330 334° Northwest 490 564 38,000  Level Anchorage Center
Mon 01:48:06 PM 64.9333 -144.9670 329° Northwest 480 552 38,000  Level Anchorage Center
Mon 01:49:07 PM 65.0500 -145.1330 332° Northwest 490 564 38,000  Level Anchorage Center
Mon 01:50:07 PM 65.1667 -145.2830 332° Northwest 480 552 38,000  Level Anchorage Center
Mon 01:51:07 PM 65.3000 -145.4500 332° Northwest 490 564 38,000  Level Anchorage Center
Mon 01:52:08 PM 65.4167 -145.6000 325° Northwest 490 564 38,000  Level Anchorage Center
Mon 01:53:08 PM 65.5167 -145.7670 333° Northwest 480 552 38,000  Level Anchorage Center
Mon 01:54:08 PM 65.6500 -145.9330 330° Northwest 490 564 38,000  Level Anchorage Center
Mon 01:55:08 PM 65.7667 -146.1000 330° Northwest 490 564 38,000  Level Anchorage Center
Mon 01:56:09 PM 65.8833 -146.2670 330° Northwest 490 564 38,000  Level Anchorage Center
Mon 01:57:09 PM 66.0000 -146.4330 327° Northwest 490 564 38,000  Level Anchorage Center
Mon 01:58:09 PM 66.1167 -146.6170 330° Northwest 480 552 38,000  Level Anchorage Center
Mon 01:59:10 PM 66.2333 -146.7830 326° Northwest 480 552 38,000  Level Anchorage Center
Mon 02:00:10 PM 66.3333 -146.9500 328° Northwest 480 552 38,000  Level Anchorage Center
Mon 02:01:11 PM 66.4500 -147.1330 328° Northwest 490 564 38,000  Level Anchorage Center
Mon 02:02:11 PM 66.5667 -147.3170 331° Northwest 480 552 38,000  Level Anchorage Center
Mon 02:03:12 PM 66.6833 -147.4830 328° Northwest 480 552 38,000  Level Anchorage Center
Mon 02:04:12 PM 66.8000 -147.6670 328° Northwest 480 552 38,000  Level Anchorage Center
Mon 02:05:12 PM 66.9167 -147.8500 329° Northwest 480 552 38,000  Level Anchorage Center
Mon 02:06:13 PM 67.0333 -148.0330 329° Northwest 480 552 38,000  Level Anchorage Center
Mon 02:07:13 PM 67.1500 -148.2170 325° Northwest 480 552 38,000  Level Anchorage Center
Mon 02:08:13 PM 67.2500 -148.4000 327° Northwest 490 564 38,000  Level Anchorage Center
Mon 02:09:14 PM 67.3667 -148.6000 329° Northwest 480 552 38,000  Level Anchorage Center
Mon 02:10:14 PM 67.4833 -148.7830 329° Northwest 490 564 38,000  Level Anchorage Center
Mon 02:11:15 PM 67.6000 -148.9670 323° Northwest 480 552 38,000  Level Anchorage Center
Mon 02:12:15 PM 67.7000 -149.1670 327° Northwest 480 552 38,000  Level Anchorage Center
Mon 02:13:15 PM 67.8167 -149.3670 327° Northwest 480 552 38,000  Level Anchorage Center
Mon 02:14:15 PM 67.9333 -149.5670 323° Northwest 480 552 38,000  Level Anchorage Center
Mon 02:15:16 PM 68.0333 -149.7670 327° Northwest 480 552 38,000  Level Anchorage Center
Mon 02:16:16 PM 68.1500 -149.9670 330° Northwest 480 552 38,000  Level Anchorage Center
Mon 02:17:17 PM 68.2667 -150.1500 321° Northwest 480 552 38,000  Level Anchorage Center
Mon 02:18:17 PM 68.3667 -150.3670 326° Northwest 490 564 38,000  Level Anchorage Center
Mon 02:19:17 PM 68.4833 -150.5830 328° Northwest 490 564 38,000  Level Anchorage Center
Mon 02:20:18 PM 68.6000 -150.7830 322° Northwest 490 564 38,000  Level Anchorage Center
Mon 02:21:18 PM 68.7000 -151.0000 326° Northwest 490 564 38,000 149 Level Anchorage Center
Mon 02:22:19 PM 68.8167 -151.2170 326° Northwest 480 552 38,300 397 Climbing Anchorage Center
Mon 02:23:19 PM 68.9333 -151.4330 322° Northwest 490 564 38,800 350 Climbing Anchorage Center
Mon 02:24:19 PM 69.0333 -151.6500 327° Northwest 480 552 39,000 100 Climbing Anchorage Center
Mon 02:25:19 PM 69.1500 -151.8670 321° Northwest 480 552 39,000  Level Anchorage Center
Mon 02:26:20 PM 69.2500 -152.1000 327° Northwest 490 564 39,000  Level Anchorage Center
Mon 02:27:20 PM 69.3667 -152.3170 321° Northwest 480 552 39,000  Level Anchorage Center
Mon 02:28:20 PM 69.4667 -152.5500 327° Northwest 480 552 39,000  Level Anchorage Center
Mon 02:29:21 PM 69.5833 -152.7670 321° Northwest 480 552 39,000  Level Anchorage Center
Mon 02:30:21 PM 69.6833 -153.0000 325° Northwest 480 552 39,000  Level Anchorage Center
Mon 02:31:21 PM 69.8000 -153.2330 319° Northwest 480 552 39,000  Level Anchorage Center
Mon 02:32:22 PM 69.9000 -153.4830 323° Northwest 480 552 39,000  Level Anchorage Center
Mon 02:33:22 PM 70.0000 -153.7000 326° Northwest 480 552 39,000  Level Anchorage Center
Mon 02:34:22 PM 70.1167 -153.9330 320° Northwest 490 564 39,000  Level Anchorage Center
Mon 02:35:23 PM 70.2167 -154.1830 320° Northwest 480 552 39,000  Level Anchorage Center
Mon 02:36:23 PM 70.3167 -154.4330 326° Northwest 480 552 39,000  Level Anchorage Center
Mon 02:37:23 PM 70.4333 -154.6670 319° Northwest 490 564 39,000  Level Anchorage Center
Mon 02:38:24 PM 70.5500 -154.9670 323° Northwest 490 564 39,000  Level Anchorage Center
Mon 02:39:24 PM 70.6667 -155.2330 321° Northwest 480 552 39,000  Level Anchorage Center
Mon 02:40:24 PM 70.7667 -155.4830 319° Northwest 490 564 39,000  Level Anchorage Center
Mon 02:41:24 PM 70.8667 -155.7500 321° Northwest 480 552 39,000  Level Anchorage Center
Mon 02:42:25 PM 70.9667 -156.0000 319° Northwest 490 564 39,000  Level Anchorage Center
Mon 02:43:25 PM 71.0667 -156.2670 318° Northwest 480 552 39,000  Level Anchorage Center
Mon 02:44:26 PM 71.1667 -156.5500 325° Northwest 500 575 39,000  Level Anchorage Center
Mon 02:45:26 PM 71.2667 -156.7670 325° Northwest 460 529 39,000  Level Anchorage Center
Mon 02:46:27 PM 71.3667 -156.9830 332° Northwest 470 541 39,000  Level Anchorage Center
Mon 02:48:27 PM 71.6167 -157.4000 332° Northwest 500 575 39,000  Level Anchorage Center
Mon 02:49:27 PM 71.7333 -157.6000 330° Northwest 480 552 39,000  Level Anchorage Center
Mon 02:50:28 PM 71.8500 -157.8170 330° Northwest 490 564 39,000  Level Anchorage Center
Mon 02:51:28 PM 71.9667 -158.0330 330° Northwest 480 552 39,000  Level Anchorage Center
Mon 02:52:28 PM 72.0833 -158.2500 330° Northwest 490 564 39,000  Level Anchorage Center
Mon 02:53:29 PM 72.2000 -158.4670 331° Northwest 480 552 39,000  Level Anchorage Center
Mon 02:54:29 PM 72.3167 -158.6830 331° Northwest 480 552 39,000  Level Anchorage Center
Mon 02:55:29 PM 72.4333 -158.9000 327° Northwest 500 575 39,000  Level Anchorage Center
Mon 02:56:29 PM 72.5500 -159.1500 331° Northwest 490 564 39,000  Level Anchorage Center
Mon 02:57:30 PM 72.6667 -159.3670 328° Northwest 480 552 39,000  Level Anchorage Center
Mon 02:58:30 PM 72.7833 -159.6170 330° Northwest 500 575 39,000  Level Anchorage Center
Mon 02:59:30 PM 72.9000 -159.8500 326° Northwest 490 564 39,000  Level Anchorage Center
Mon 03:00:31 PM 73.0000 -160.0830 330° Northwest 480 552 39,000  Level Anchorage Center
Mon 03:01:31 PM 73.1167 -160.3170 329° Northwest 490 564 39,000  Level Anchorage Center
Mon 03:02:32 PM 73.2667 -160.6330 324° Northwest 490 564 39,000  Level Anchorage Center
Mon 03:03:32 PM 73.3667 -160.8830 329° Northwest 490 564 39,000  Level Anchorage Center
Mon 03:04:32 PM 73.4833 -161.1330 328° Northwest 490 564 39,000  Level Anchorage Center
Mon 03:06:33 PM 73.7167 -161.6500 328° Northwest 490 564 39,000  Level Anchorage Center
Mon 03:07:33 PM 73.8333 -161.9170 324° Northwest 490 564 39,000  Level Anchorage Center
Mon 03:08:33 PM 73.9333 -162.1830 326° Northwest 500 575 39,000  Level Anchorage Center
Mon 03:09:34 PM 74.0500 -162.4670 327° Northwest 490 564 39,000  Level Anchorage Center
Mon 03:10:34 PM 74.1667 -162.7500 325° Northwest 490 564 39,000  Level Anchorage Center
Mon 03:12:34 PM 74.3833 -163.3170 327° Northwest 500 575 39,000  Level Anchorage Center
Mon 03:13:35 PM 74.5000 -163.6000 323° Northwest 500 575 39,000  Level Anchorage Center
Mon 03:14:35 PM 74.6000 -163.8830 114° Southeast 490 564 39,000 Level Anchorage Center
Tue 12:55:26 AM 58.7167 -123.0500 180° South 470 541 41,000 Climbing Edmonton Center
Tue 12:56:26 AM 58.5833 -123.0500 180° South 480 552 41,000  Level Edmonton Center
Tue 12:57:26 AM 58.4667 -123.0500 173° South 470 541 41,000  Level Edmonton Center
Tue 12:58:23 AM 58.3333 -123.0170 177° South 480 552 41,000  Level Edmonton Center
Tue 12:59:23 AM 58.1833 -123.0000 180° South 480 552 41,000  Level Edmonton Center
Tue 01:00:23 AM 58.0667 -123.0000 173° South 470 541 41,000  Level Edmonton Center
Tue 01:01:23 AM 57.9333 -122.9670 172° South 470 541 41,000  Level Edmonton Center
Tue 01:02:23 AM 57.8000 -122.9330 180° South 470 541 41,000  Level Edmonton Center
Tue 01:03:23 AM 57.6667 -122.9330 177° South 480 552 41,000  Level Edmonton Center
Tue 01:04:23 AM 57.5167 -122.9170 180° South 490 564 41,000  Level Edmonton Center
Tue 01:05:23 AM 57.4000 -122.9170 173° South 480 552 41,000  Level Edmonton Center
Tue 01:06:23 AM 57.2500 -122.8830 180° South 480 552 41,000  Level Edmonton Center
Tue 01:07:23 AM 57.1167 -122.8830 170° South 490 564 41,000  Level Edmonton Center
Tue 01:08:23 AM 56.9667 -122.8330 180° South 490 564 41,000  Level Edmonton Center
Tue 01:09:23 AM 56.8500 -122.8330 180° South 480 552 41,000  Level Edmonton Center
Tue 01:10:23 AM 56.7167 -122.8330 172° South 480 552 41,000  Level Edmonton Center
Tue 01:11:23 AM 56.5833 -122.8000 180° South 490 564 41,000  Level Edmonton Center
Tue 01:12:23 AM 56.4333 -122.8000 172° South 480 552 41,000  Level Edmonton Center
Tue 01:13:23 AM 56.3000 -122.7670 180° South 480 552 41,000  Level Edmonton Center
Tue 01:14:23 AM 56.1833 -122.7670 177° South 480 552 41,000  Level Edmonton Center
Tue 01:15:23 AM 56.0167 -122.7500 171° South 480 552 41,000  Level Edmonton Center
Tue 01:16:23 AM 55.9000 -122.7170 180° South 490 564 41,000  Level Edmonton Center
Tue 01:17:23 AM 55.7667 -122.7170 172° South 480 552 41,000  Level Edmonton Center
Tue 01:18:23 AM 55.6333 -122.6830 187° South 480 552 41,000 -200 Level Edmonton Center
Tue 01:19:23 AM 55.4833 -122.7170 180° South 480 552 40,600 -650 Descending Edmonton Center
Tue 01:20:23 AM 55.3667 -122.7170 183° South 470 541 39,700 -800 Descending Edmonton Center
Tue 01:21:23 AM 55.2167 -122.7330 189° South 470 541 39,000 -341 Descending Edmonton Center
Tue 01:22:26 AM 55.1000 -122.7670 164° South 460 529 39,000  Level Edmonton Center
Tue 01:23:14 AM 55.0000 -122.7170 180° South 460 529 39,000  Level Vancouver Center
Tue 01:24:14 AM 54.8833 -122.7170 189° South 460 529 39,000  Level Vancouver Center
Tue 01:25:14 AM 54.7667 -122.7500 180° South 430 495 39,000  Level Vancouver Center
Tue 01:26:14 AM 54.6500 -122.7500 191° South 410 472 39,000  Level Vancouver Center
Tue 01:27:14 AM 54.5500 -122.7830 184° South 410 472 39,000  Level Vancouver Center
Tue 01:28:14 AM 54.4167 -122.8000 187° South 410 472 39,000  Level Vancouver Center
Tue 01:29:14 AM 54.3333 -122.8170 185° South 400 460 39,000  Level Vancouver Center
Tue 01:30:14 AM 54.2167 -122.8330 186° South 390 449 39,000  Level Vancouver Center
Tue 01:31:14 AM 54.1167 -122.8500 185° South 400 460 39,000  Level Vancouver Center
Tue 01:32:14 AM 54.0000 -122.8670 185° South 400 460 39,000  Level Vancouver Center
Tue 01:33:14 AM 53.8833 -122.8830 186° South 400 460 39,000  Level Vancouver Center
Tue 01:34:14 AM 53.7833 -122.9000 180° South 400 460 39,000  Level Vancouver Center
Tue 01:35:14 AM 53.6667 -122.9000 191° South 390 449 39,000  Level Vancouver Center
Tue 01:36:14 AM 53.5667 -122.9330 180° South 400 460 39,000  Level Vancouver Center
Tue 01:37:14 AM 53.4333 -122.9330 187° South 400 460 39,000  Level Vancouver Center
Tue 01:38:14 AM 53.3500 -122.9500 184° South 400 460 39,000  Level Vancouver Center
Tue 01:39:14 AM 53.2167 -122.9670 185° South 400 460 39,000  Level Vancouver Center
Tue 01:40:14 AM 53.1000 -122.9830 185° South 400 460 39,000  Level Vancouver Center
Tue 01:41:14 AM 52.9833 -123.0000 180° South 400 460 39,000  Level Vancouver Center
Tue 01:42:14 AM 52.8833 -123.0000 185° South 390 449 39,000  Level Vancouver Center
Tue 01:43:14 AM 52.7667 -123.0170 186° South 390 449 39,000  Level Vancouver Center
Tue 01:44:14 AM 52.6667 -123.0330 185° South 390 449 39,000  Level Vancouver Center
Tue 01:45:14 AM 52.5500 -123.0500 180° South 390 449 39,000  Level Vancouver Center
Tue 01:46:14 AM 52.4500 -123.0500 190° South 400 460 39,000  Level Vancouver Center
Tue 01:47:14 AM 52.3333 -123.0830 180° South 400 460 39,000  Level Vancouver Center
Tue 01:48:14 AM 52.2167 -123.0830 180° South 400 460 39,000  Level Vancouver Center
Tue 01:49:14 AM 52.1167 -123.0830 190° South 400 460 39,000  Level Vancouver Center
Tue 01:50:14 AM 52.0000 -123.1170 180° South 400 460 39,000  Level Vancouver Center
Tue 01:51:14 AM 51.8833 -123.1170 192° South 400 460 39,000  Level Vancouver Center
Tue 01:52:14 AM 51.7833 -123.1500 180° South 400 460 39,000  Level Vancouver Center
Tue 01:53:14 AM 51.6667 -123.1500 180° South 390 449 39,000  Level Vancouver Center
Tue 01:54:14 AM 51.5667 -123.1500 190° South 390 449 39,000  Level Vancouver Center
Tue 01:55:14 AM 51.4500 -123.1830 180° South 390 449 39,000  Level Vancouver Center
Tue 01:56:14 AM 51.3500 -123.1830 190° South 400 460 39,000  Level Vancouver Center
Tue 01:57:14 AM 51.2333 -123.2170 180° South 400 460 39,000  Level Vancouver Center
Tue 01:58:14 AM 51.1167 -123.2170 186° South 400 460 39,000  Level Vancouver Center
Tue 01:59:14 AM 51.0167 -123.2330 185° South 420 483 39,000  Level Vancouver Center
Tue 02:00:14 AM 50.8833 -123.2500 185° South 450 518 39,000  Level Vancouver Center
Tue 02:01:14 AM 50.7500 -123.2670 180° South 480 552 39,000  Level Vancouver Center
Tue 02:02:14 AM 50.6000 -123.2670 189° South 490 564 39,000  Level Vancouver Center
Tue 02:03:14 AM 50.4667 -123.3000 180° South 490 564 39,000  Level Vancouver Center
Tue 02:04:14 AM 50.3333 -123.3000 189° South 490 564 39,000  Level Vancouver Center
Tue 02:05:14 AM 50.2000 -123.3330 180° South 490 564 39,000  Level Vancouver Center
Tue 02:06:14 AM 50.0667 -123.3330 185° South 490 564 39,000  Level Vancouver Center
Tue 02:07:14 AM 49.9333 -123.3500 185° South 490 564 39,000  Level Vancouver Center
Tue 02:08:14 AM 49.8000 -123.3670 184° South 490 564 39,000  Level Vancouver Center
Tue 02:09:14 AM 49.6667 -123.3830 180° South 490 564 39,000 -1,600 Level Vancouver Center
Tue 02:10:14 AM 49.5167 -123.3830 191° South 490 564 35,800 -5,800 Descending Vancouver Center
Tue 02:11:14 AM 49.4000 -123.4170 180° South 480 552 27,400 -8,050 Descending Vancouver Center
Tue 02:12:14 AM 49.2667 -123.4170 192° South 470 541 19,700 -4,700 Descending Vancouver Center
Tue 02:13:14 AM 49.1667 -123.4500 180° South 410 472 18,000 -800 Descending Vancouver Center
Tue 02:14:14 AM 49.0667 -123.4500 180° South 320 368 18,100  Climbing Vancouver Center
Tue 02:15:14 AM 48.9833 -123.4500 186° South 330 380 18,000 -50 Descending Vancouver Center
Tue 02:16:14 AM 48.8833 -123.4670 180° South 310 357 18,000  Level Vancouver Center
Tue 02:17:14 AM 48.8167 -123.4670 180° South 290 334 18,000 -50 Level Vancouver Center
Tue 02:18:14 AM 48.7333 -123.4670 170° South 280 322 17,900 -50 Descending Vancouver Center
Tue 02:19:14 AM 48.6667 -123.4500 154° Southeast 260 299 17,900 50 Level Vancouver Center
Tue 02:20:14 AM 48.6000 -123.4000 146° Southeast 240 276 18,000 50 Climbing Vancouver Center
Tue 02:21:14 AM 48.5500 -123.3500 140° Southeast 250 288 18,000  Level Vancouver Center
Tue 02:22:14 AM 48.4833 -123.2670 146° Southeast 270 311 18,000  Level Vancouver Center
Tue 02:23:14 AM 48.4167 -123.2000 158° South 290 334 18,000 -100 Level Vancouver Center
Tue 02:24:14 AM 48.3333 -123.1500 135° Southeast 310 357 17,800 -864 Descending Vancouver Center
Tue 02:25:12 AM 48.2825 -123.0750 142° Southeast 336 387 16,300 -1,325 Descending Seattle Center
Tue 02:25:31 AM 48.2664 -123.0560 150° Southeast 317 365 16,100 -152 Descending Seattle Center
Tue 02:26:31 AM 48.1789 -122.9790 152° Southeast 343 395 16,100 -77 Level Seattle Center
Tue 02:26:49 AM 48.1403 -122.9480 147° Southeast 364 419 16,000  Descending Seattle Center
Tue 02:27:31 AM 48.0936 -122.9020 150° Southeast 359 413 16,100  Climbing Seattle Center
Tue 02:27:50 AM 48.0550 -122.8690 145° Southeast 360 414 16,000 -100 Descending Seattle Center
Tue 02:28:31 AM 48.0103 -122.8230 149° Southeast 359 413 16,000 -891 Level Seattle Center
Tue 02:29:31 AM 47.9269 -122.7470 150° Southeast 359 413 14,500 -1,721 Descending Seattle Center
Tue 02:30:40 AM 47.8211 -122.6550 148° Southeast 341 392 12,300 -1,800 Descending Seattle Center
Tue 02:31:31 AM 47.7581 -122.5960 150° Southeast 342 394 10,900 -1,243 Descending Seattle Center
Tue 02:32:31 AM 47.6844 -122.5330 149° Southeast 329 379 10,000 -450 Descending Seattle Center
Tue 02:33:31 AM 47.6111 -122.4680 162° South 317 365 10,000  Level Seattle Center
Tue 02:34:31 AM 47.5350 -122.4310 166° South 305 351 10,000 -350 Level Seattle Center
Tue 02:35:31 AM 47.4750 -122.4090 152° Southeast 274 315 9,300 -1,429 Descending Seattle Center
Tue 02:36:37 AM 47.4075 -122.3570 124° Southeast 232 267 7,000 -1,850 Descending Seattle Center
Tue 02:37:31 AM 47.3817 -122.3010 94° East 217 250 5,600 -1,421 Descending Seattle Center
Tue 02:38:31 AM 47.3789 -122.2390 29° Northeast 168 193 4,300 -1,300 Descending Seattle Center
Tue 02:39:31 AM 47.4147 -122.2100 336° Northwest 109 125 3,000 -1,300 Descending Seattle Center
Tue 02:40:31 AM 47.4497 -122.2330 329° Northwest 94 108 1,700 -1,050 Descending Seattle Center
Tue 02:41:31 AM 47.4825 -122.2620 332° Northwest 108 124 900 7,650 Descending Seattle Center
Tue 02:42:31 AM 47.5150 -122.2880 333° Northwest 125 144 17,000 8,050 Climbing Seattle Center
Tue 02:43:31 AM 47.5500 -122.3140 333° Northwest 131 151 17,000  Level Seattle Center

Login

Don't have an account? Register now (free) for customized features, flight alerts, and more!